createdAt,value
2022-11-26T00:02:01.344Z,6.43
2022-11-26T00:05:03.344Z,6.90
2022-11-26T00:08:14.901Z,6.28
2022-11-26T00:11:17.410Z,6.85
2022-11-26T00:14:19.222Z,6.30
2022-11-26T00:17:22.182Z,6.65
2022-11-26T00:20:29.468Z,7.22
2022-11-26T00:23:31.198Z,6.70
2022-11-26T00:26:33.729Z,7.22
2022-11-26T00:29:35.503Z,7.53
2022-11-26T00:32:37.661Z,7.25
2022-11-26T00:35:39.588Z,8.07
2022-11-26T00:38:55.220Z,8.02
2022-11-26T00:41:57.094Z,7.72
2022-11-26T00:44:59.083Z,8.05
2022-11-26T00:48:01.916Z,7.07
2022-11-26T00:51:04.595Z,6.93
2022-11-26T00:54:09.258Z,7.17
2022-11-26T00:57:11.465Z,7.28
2022-11-26T01:00:19.707Z,6.68
2022-11-26T01:03:21.548Z,5.97
2022-11-26T01:06:32.706Z,6.30
2022-11-26T01:09:34.483Z,7.32
2022-11-26T01:12:36.167Z,6.78
2022-11-26T01:15:38.396Z,6.40
2022-11-26T01:18:40.094Z,6.30
2022-11-26T01:21:42.178Z,6.93
2022-11-26T01:24:44.037Z,6.07
2022-11-26T01:27:46.313Z,6.95
2022-11-26T01:30:49.048Z,5.63
2022-11-26T01:33:50.855Z,6.43
2022-11-26T01:36:55.872Z,5.57
2022-11-26T01:40:26.432Z,6.07
2022-11-26T01:43:37.003Z,5.30
2022-11-26T01:46:40.258Z,5.45
2022-11-26T01:49:42.237Z,6.05
2022-11-26T01:56:18.946Z,5.70
2022-11-26T01:59:26.612Z,6.00
2022-11-26T02:02:47.532Z,5.53
2022-11-26T02:05:58.023Z,6.68
2022-11-26T02:09:02.662Z,6.70
2022-11-26T02:12:05.011Z,7.05
2022-11-26T02:15:07.577Z,5.90
2022-11-26T02:18:10.052Z,6.77
2022-11-26T02:21:31.116Z,6.23
2022-11-26T02:24:50.098Z,7.28
2022-11-26T02:28:10.193Z,7.10
2022-11-26T02:31:20.052Z,6.05
2022-11-26T02:34:48.097Z,6.05
2022-11-26T02:38:01.656Z,6.05
2022-11-26T02:44:05.362Z,5.93
2022-11-26T02:47:12.659Z,6.00
2022-11-26T02:50:22.883Z,5.45
2022-11-26T02:53:27.820Z,5.68
2022-11-26T02:56:30.170Z,6.03
2022-11-26T02:59:33.275Z,5.70
2022-11-26T03:02:45.229Z,6.10
2022-11-26T03:05:47.198Z,5.85
2022-11-26T03:08:49.206Z,6.10
2022-11-26T03:11:51.103Z,6.13
2022-11-26T03:14:53.035Z,5.95
2022-11-26T03:17:54.977Z,5.85
2022-11-26T03:21:02.449Z,5.60
2022-11-26T03:24:04.555Z,6.05
2022-11-26T03:27:06.510Z,6.07
2022-11-26T03:30:09.357Z,6.05
2022-11-26T03:33:11.764Z,5.28
2022-11-26T03:36:13.450Z,6.15
2022-11-26T03:39:18.937Z,5.53
2022-11-26T03:42:20.856Z,5.63
2022-11-26T03:45:22.775Z,5.40
2022-11-26T03:48:30.381Z,5.55
2022-11-26T03:51:32.626Z,5.90
2022-11-26T03:54:34.581Z,5.53
2022-11-26T03:57:36.574Z,5.85
2022-11-26T04:00:38.296Z,6.35
2022-11-26T04:03:40.527Z,5.93
2022-11-26T04:06:42.518Z,5.78
2022-11-26T04:09:44.267Z,6.65
2022-11-26T04:12:46.011Z,5.75
2022-11-26T04:15:48.311Z,5.60
2022-11-26T04:18:50.278Z,4.93
2022-11-26T04:21:52.773Z,5.97
2022-11-26T04:24:54.543Z,4.73
2022-11-26T04:27:56.887Z,4.82
2022-11-26T04:31:00.045Z,5.18
2022-11-26T04:34:08.633Z,4.88
2022-11-26T04:37:10.372Z,4.90
2022-11-26T04:40:12.748Z,4.97
2022-11-26T04:43:14.681Z,5.17
2022-11-26T04:46:16.645Z,4.55
2022-11-26T04:49:18.662Z,4.95
2022-11-26T04:52:20.372Z,4.95
2022-11-26T04:55:22.631Z,5.00
2022-11-26T04:58:25.025Z,4.67
2022-11-26T05:01:27.058Z,4.22
2022-11-26T05:04:29.833Z,4.57
2022-11-26T05:07:31.717Z,4.00
2022-11-26T05:10:34.500Z,4.28
2022-11-26T05:13:36.462Z,4.50
2022-11-26T05:16:38.503Z,4.45
2022-11-26T05:19:40.332Z,4.00
2022-11-26T05:22:43.029Z,4.45
2022-11-26T05:25:44.976Z,4.18
2022-11-26T05:28:52.520Z,3.83
2022-11-26T05:31:54.396Z,4.32
2022-11-26T05:35:00.083Z,4.18
2022-11-26T05:38:05.135Z,4.60
2022-11-26T05:41:06.946Z,4.13
2022-11-26T05:44:08.856Z,4.82
2022-11-26T05:47:10.786Z,4.40
2022-11-26T05:50:12.865Z,3.95
2022-11-26T05:53:26.304Z,4.95
2022-11-26T05:56:28.471Z,4.63
2022-11-26T05:59:30.253Z,4.15
2022-11-26T06:02:32.230Z,4.80
2022-11-26T06:05:34.260Z,4.65
2022-11-26T06:08:36.221Z,5.05
2022-11-26T06:11:38.174Z,5.50
2022-11-26T06:14:43.103Z,5.05
2022-11-26T06:17:45.317Z,4.85
2022-11-26T06:20:47.284Z,4.90
2022-11-26T06:23:55.853Z,5.35
2022-11-26T06:26:59.587Z,5.00
2022-11-26T06:30:01.791Z,5.13
2022-11-26T06:33:03.909Z,4.78
2022-11-26T06:36:06.418Z,5.13
2022-11-26T06:39:09.263Z,4.10
2022-11-26T06:42:11.010Z,4.00
2022-11-26T06:45:12.824Z,3.50
2022-11-26T06:48:14.527Z,3.80
2022-11-26T06:51:17.432Z,4.35
2022-11-26T06:54:19.237Z,4.63
2022-11-26T06:57:21.175Z,3.58
2022-11-26T07:00:23.078Z,3.88
2022-11-26T07:03:30.500Z,3.50
2022-11-26T07:06:38.250Z,3.70
2022-11-26T07:09:40.594Z,4.13
2022-11-26T07:12:42.479Z,3.75
2022-11-26T07:15:44.211Z,4.05
2022-11-26T07:18:51.681Z,4.47
2022-11-26T07:21:54.170Z,4.50
2022-11-26T07:24:55.873Z,3.70
2022-11-26T07:27:58.265Z,4.20
2022-11-26T07:31:02.518Z,3.77
2022-11-26T07:34:06.140Z,4.47
2022-11-26T07:37:08.044Z,9.65
2022-11-26T07:40:16.485Z,9.48
2022-11-26T07:43:18.416Z,9.70
2022-11-26T07:46:23.422Z,6.32
2022-11-26T07:49:25.261Z,7.55
2022-11-26T07:52:27.035Z,6.25
2022-11-26T07:55:28.775Z,6.15
2022-11-26T07:58:30.709Z,4.70
2022-11-26T08:01:33.200Z,7.25
2022-11-26T08:04:34.946Z,5.53
2022-11-26T08:07:40.069Z,5.47
2022-11-26T08:10:41.847Z,6.68
2022-11-26T08:13:44.696Z,6.63
2022-11-26T08:17:07.218Z,4.93
2022-11-26T08:20:09.629Z,5.22
2022-11-26T08:23:12.074Z,4.03
2022-11-26T08:26:27.638Z,4.80
2022-11-26T08:29:36.989Z,4.63
2022-11-26T08:32:39.844Z,4.30
2022-11-26T08:36:05.469Z,6.70
2022-11-26T08:39:03.831Z,5.18
2022-11-26T08:42:05.597Z,4.10
2022-11-26T08:45:08.048Z,3.90
2022-11-26T08:48:13.520Z,4.05
2022-11-26T08:51:17.296Z,3.70
2022-11-26T08:54:19.877Z,4.20
2022-11-26T08:57:21.632Z,3.90
2022-11-26T09:00:23.513Z,4.00
2022-11-26T09:03:25.387Z,3.35
2022-11-26T09:06:30.035Z,3.22
2022-11-26T09:09:32.489Z,4.28
2022-11-26T09:12:34.485Z,4.97
2022-11-26T09:15:37.538Z,4.43
2022-11-26T09:18:40.144Z,3.90
2022-11-26T09:21:41.962Z,3.45
2022-11-26T09:24:43.833Z,3.83
2022-11-26T09:27:45.631Z,4.20
2022-11-26T09:30:47.551Z,3.33
2022-11-26T09:33:50.193Z,3.78
2022-11-26T09:36:51.919Z,3.88
2022-11-26T09:39:54.314Z,3.60
2022-11-26T09:43:13.888Z,3.67
2022-11-26T09:46:22.747Z,3.20
2022-11-26T09:49:25.981Z,3.10
2022-11-26T09:52:33.762Z,3.10
2022-11-26T09:55:38.897Z,3.88
2022-11-26T09:58:44.426Z,3.92
2022-11-26T10:01:46.541Z,4.70
2022-11-26T10:04:48.784Z,5.18
2022-11-26T10:08:03.090Z,5.53
2022-11-26T10:11:19.292Z,3.97
2022-11-26T10:14:33.122Z,3.78
2022-11-26T10:18:02.944Z,2.92
2022-11-26T10:21:37.770Z,3.28
2022-11-26T10:24:42.272Z,3.75
2022-11-26T10:27:45.341Z,5.55
2022-11-26T10:30:54.215Z,4.10
2022-11-26T10:33:58.530Z,3.83
2022-11-26T10:37:00.320Z,4.32
2022-11-26T10:40:25.659Z,3.78
2022-11-26T10:43:27.885Z,5.10
2022-11-26T10:46:34.996Z,3.53
2022-11-26T10:49:37.511Z,3.85
2022-11-26T10:52:40.163Z,4.00
2022-11-26T10:55:43.895Z,3.60
2022-11-26T10:58:48.069Z,3.80
2022-11-26T11:01:52.998Z,3.78
2022-11-26T11:05:01.744Z,3.97
2022-11-26T11:08:03.564Z,3.53
2022-11-26T11:11:05.844Z,4.18
2022-11-26T11:14:29.114Z,3.67
2022-11-26T11:17:32.455Z,4.15
2022-11-26T11:24:07.148Z,5.75
2022-11-26T11:27:02.427Z,4.30
2022-11-26T11:30:05.435Z,3.70
2022-11-26T11:33:22.357Z,4.15
2022-11-26T11:36:29.277Z,4.13
2022-11-26T11:39:33.748Z,6.85
2022-11-26T11:42:35.696Z,5.50
2022-11-26T11:45:42.367Z,5.82
2022-11-26T11:48:47.812Z,6.10
2022-11-26T11:52:15.861Z,4.43
2022-11-26T11:55:25.870Z,3.33
2022-11-26T11:58:46.310Z,4.00
2022-11-26T12:02:15.670Z,3.10
2022-11-26T12:05:43.181Z,3.03
2022-11-26T12:09:15.742Z,2.92
2022-11-26T12:12:38.223Z,3.15
2022-11-26T12:15:53.120Z,3.55
2022-11-26T12:19:12.773Z,3.90
2022-11-26T12:22:39.607Z,2.63
2022-11-26T12:25:47.485Z,3.75
2022-11-26T12:29:08.135Z,3.83
2022-11-26T12:32:25.972Z,3.30
2022-11-26T12:35:35.840Z,2.95
2022-11-26T12:38:45.360Z,3.45
2022-11-26T12:41:58.866Z,3.38
2022-11-26T12:45:17.720Z,2.85
2022-11-26T12:48:22.822Z,2.90
2022-11-26T12:51:49.381Z,3.03
2022-11-26T12:55:01.529Z,3.58
2022-11-26T12:58:18.091Z,3.20
2022-11-26T13:01:20.200Z,3.05
2022-11-26T13:04:41.473Z,3.38
2022-11-26T13:07:55.312Z,3.20
2022-11-26T13:11:00.442Z,3.55
2022-11-26T13:14:28.521Z,3.50
2022-11-26T13:17:47.422Z,3.45
2022-11-26T13:21:26.519Z,3.05
2022-11-26T13:24:34.379Z,2.85
2022-11-26T13:27:49.289Z,3.28
2022-11-26T13:31:30.942Z,3.88
2022-11-26T13:34:54.508Z,3.03
2022-11-26T13:38:12.683Z,3.47
2022-11-26T13:41:58.275Z,3.45
2022-11-26T13:45:20.888Z,3.50
2022-11-26T13:48:31.021Z,3.60
2022-11-26T13:51:56.050Z,3.60
2022-11-26T13:55:11.027Z,3.40
2022-11-26T13:58:36.157Z,4.45
2022-11-26T14:01:40.587Z,5.57
2022-11-26T14:04:48.545Z,4.53
2022-11-26T14:07:50.860Z,4.75
2022-11-26T14:10:55.325Z,4.10
2022-11-26T14:14:26.331Z,4.30
2022-11-26T14:17:33.843Z,3.50
2022-11-26T14:21:01.580Z,3.63
2022-11-26T14:24:03.568Z,3.15
2022-11-26T14:27:05.293Z,3.92
2022-11-26T14:30:07.192Z,3.28
2022-11-26T14:33:18.889Z,3.40
2022-11-26T14:36:23.440Z,4.05
2022-11-26T14:39:26.936Z,2.85
2022-11-26T14:42:29.713Z,3.70
2022-11-26T14:45:31.733Z,3.65
2022-11-26T14:48:37.073Z,3.40
2022-11-26T14:51:39.106Z,3.25
2022-11-26T14:54:41.570Z,3.67
2022-11-26T14:57:51.632Z,3.75
2022-11-26T15:01:16.658Z,3.95
2022-11-26T15:04:29.848Z,4.72
2022-11-26T15:07:31.920Z,4.15
2022-11-26T15:10:40.618Z,4.05
2022-11-26T15:13:45.983Z,4.47
2022-11-26T15:16:55.397Z,4.25
2022-11-26T15:20:01.841Z,3.45
2022-11-26T15:23:06.715Z,3.80
2022-11-26T15:26:17.128Z,4.00
2022-11-26T15:29:33.016Z,4.60
2022-11-26T15:32:34.818Z,3.40
2022-11-26T15:35:37.254Z,3.58
2022-11-26T15:39:00.416Z,4.80
2022-11-26T15:42:06.397Z,5.10
2022-11-26T15:45:18.761Z,5.15
2022-11-26T15:48:50.486Z,3.55
2022-11-26T15:51:57.139Z,3.25
2022-11-26T15:55:18.570Z,3.47
2022-11-26T15:58:34.858Z,3.38
2022-11-26T16:01:38.215Z,3.88
2022-11-26T16:08:00.819Z,5.00
2022-11-26T16:11:07.408Z,3.47
2022-11-26T16:14:36.604Z,3.70
2022-11-26T16:17:38.993Z,3.78
2022-11-26T16:20:40.991Z,4.80
2022-11-26T16:23:42.999Z,5.10
2022-11-26T16:27:00.811Z,4.63
2022-11-26T16:30:10.662Z,4.38
2022-11-26T16:33:12.840Z,5.22
2022-11-26T16:36:19.513Z,4.53
2022-11-26T16:39:27.486Z,6.32
2022-11-26T16:42:32.904Z,4.78
2022-11-26T16:45:34.704Z,4.82
2022-11-26T16:48:36.469Z,4.97
2022-11-26T16:51:38.309Z,4.38
2022-11-26T16:54:40.394Z,5.55
2022-11-26T16:57:45.563Z,5.07
2022-11-26T17:00:47.270Z,5.35
2022-11-26T17:03:49.106Z,4.97
2022-11-26T17:06:51.069Z,4.88
2022-11-26T17:09:53.857Z,4.28
2022-11-26T17:12:56.257Z,4.75
2022-11-26T17:15:58.569Z,4.63
2022-11-26T17:19:00.241Z,5.03
2022-11-26T17:22:02.214Z,4.40
2022-11-26T17:25:04.361Z,4.05
2022-11-26T17:28:13.630Z,4.63
2022-11-26T17:31:16.177Z,5.20
2022-11-26T17:34:18.748Z,5.00
2022-11-26T17:37:25.788Z,4.97
2022-11-26T17:40:28.904Z,5.90
2022-11-26T17:43:30.703Z,5.70
2022-11-26T17:46:42.907Z,6.63
2022-11-26T17:49:54.498Z,7.47
2022-11-26T17:52:56.508Z,6.45
2022-11-26T17:55:58.475Z,6.00
2022-11-26T17:59:02.673Z,6.57
2022-11-26T18:02:04.627Z,7.35
2022-11-26T18:05:07.862Z,6.47
2022-11-26T18:08:09.657Z,6.10
2022-11-26T18:11:14.866Z,6.28
2022-11-26T18:14:17.853Z,5.65
2022-11-26T18:17:19.766Z,6.40
2022-11-26T18:20:27.454Z,5.85
2022-11-26T18:23:29.295Z,5.13
2022-11-26T18:26:31.439Z,5.43
2022-11-26T18:29:33.247Z,5.32
2022-11-26T18:32:38.084Z,4.82
2022-11-26T18:35:42.145Z,5.07
2022-11-26T18:38:44.195Z,5.40
2022-11-26T18:41:45.949Z,4.50
2022-11-26T18:44:47.633Z,5.25
2022-11-26T18:47:49.351Z,4.70
2022-11-26T18:50:58.818Z,4.80
2022-11-26T18:54:02.028Z,4.72
2022-11-26T18:57:03.700Z,5.63
2022-11-26T19:00:07.319Z,5.72
2022-11-26T19:03:09.306Z,5.63
2022-11-26T19:06:15.212Z,5.75
2022-11-26T19:09:19.398Z,5.45
2022-11-26T19:12:21.484Z,4.40
2022-11-26T19:15:23.547Z,5.18
2022-11-26T19:18:25.259Z,5.10
2022-11-26T19:21:29.754Z,4.95
2022-11-26T19:24:31.576Z,4.80
2022-11-26T19:27:34.295Z,4.55
2022-11-26T19:30:36.315Z,5.53
2022-11-26T19:33:39.597Z,5.43
2022-11-26T19:36:42.132Z,5.13
2022-11-26T19:39:43.972Z,6.00
2022-11-26T19:42:45.761Z,4.95
2022-11-26T19:45:47.756Z,4.97
2022-11-26T19:48:51.144Z,5.03
2022-11-26T19:54:55.196Z,6.15
2022-11-26T19:57:56.963Z,5.28
2022-11-26T20:00:58.931Z,4.40
2022-11-26T20:04:03.033Z,4.93
2022-11-26T20:07:04.708Z,4.85
2022-11-26T20:10:07.285Z,4.90
2022-11-26T20:13:10.363Z,5.17
2022-11-26T20:16:15.615Z,5.07
2022-11-26T20:19:18.577Z,5.38
2022-11-26T20:22:20.639Z,5.35
2022-11-26T20:25:22.534Z,5.15
2022-11-26T20:28:24.958Z,4.78
2022-11-26T20:31:27.272Z,4.95
2022-11-26T20:34:30.922Z,4.90
2022-11-26T20:37:32.720Z,5.55
2022-11-26T20:40:34.776Z,5.07
2022-11-26T20:43:37.097Z,5.13
2022-11-26T20:46:39.585Z,5.68
2022-11-26T20:49:43.084Z,7.03
2022-11-26T20:52:45.262Z,5.53
2022-11-26T20:55:54.110Z,5.32
2022-11-26T20:58:55.848Z,5.25
2022-11-26T21:01:58.008Z,5.47
2022-11-26T21:05:00.733Z,6.13
2022-11-26T21:08:02.531Z,5.97
2022-11-26T21:11:05.635Z,4.78
2022-11-26T21:14:13.404Z,5.05
2022-11-26T21:17:16.828Z,4.28
2022-11-26T21:20:19.158Z,4.30
2022-11-26T21:23:21.322Z,5.45
2022-11-26T21:26:25.674Z,4.88
2022-11-26T21:29:27.460Z,5.15
2022-11-26T21:32:29.733Z,4.57
2022-11-26T21:35:32.305Z,4.75
2022-11-26T21:38:34.533Z,5.30
2022-11-26T21:41:36.583Z,4.55
2022-11-26T21:44:38.430Z,4.07
2022-11-26T21:47:40.618Z,4.45
2022-11-26T21:50:42.314Z,5.45
2022-11-26T21:53:44.940Z,3.75
2022-11-26T21:56:46.720Z,4.13
2022-11-26T21:59:48.635Z,4.53
2022-11-26T22:02:50.541Z,4.13
2022-11-26T22:05:52.270Z,4.88
2022-11-26T22:08:54.566Z,4.25
2022-11-26T22:11:56.783Z,4.53
2022-11-26T22:14:58.796Z,4.25
2022-11-26T22:18:00.558Z,4.82
2022-11-26T22:21:02.311Z,3.85
2022-11-26T22:24:04.736Z,5.00
2022-11-26T22:27:06.796Z,4.50
2022-11-26T22:30:08.921Z,4.63
2022-11-26T22:33:11.215Z,4.30
2022-11-26T22:36:13.382Z,4.03
2022-11-26T22:39:17.176Z,4.40
2022-11-26T22:42:18.880Z,4.43
2022-11-26T22:45:23.602Z,4.38
2022-11-26T22:48:25.895Z,4.30
2022-11-26T22:51:29.973Z,4.80
2022-11-26T22:54:31.780Z,4.68
2022-11-26T22:57:33.735Z,4.95
2022-11-26T23:00:51.024Z,4.78
2022-11-26T23:03:53.945Z,4.00
2022-11-26T23:06:55.875Z,4.53
2022-11-26T23:09:57.566Z,4.78
2022-11-26T23:12:59.397Z,4.13
2022-11-26T23:16:01.536Z,4.50
2022-11-26T23:19:04.226Z,4.28
2022-11-26T23:22:05.941Z,4.28
2022-11-26T23:25:08.711Z,4.38
2022-11-26T23:28:10.494Z,4.60
2022-11-26T23:31:20.669Z,4.00
2022-11-26T23:34:22.784Z,4.13
2022-11-26T23:37:24.803Z,4.18
2022-11-26T23:40:26.545Z,4.55
2022-11-26T23:43:30.324Z,5.47
2022-11-26T23:46:35.332Z,4.57
2022-11-26T23:49:37.303Z,4.65
2022-11-26T23:52:39.199Z,5.18
2022-11-26T23:55:40.986Z,4.82
2022-11-26T23:58:43.155Z,4.55
